Time,TemperatureF,DewpointF,PressureIn,WindDirection,WindDirectionDegrees,WindSpeedMPH,WindSpeedGustMPH,Humidity,HourlyPrecipIn,Conditions,Clouds,dailyrainin,SoftwareType,DateUTC
2013-03-07 00:02:00,32.0,28.0,30.21,WSW,240,3.0,4.0,85,0.00,,,0.01,,2013-03-07 05:02:00,
2013-03-07 00:12:00,32.0,28.0,30.21,WSW,240,3.0,4.0,85,0.00,,,0.01,,2013-03-07 05:12:00,
2013-03-07 00:22:00,32.0,28.0,30.21,WSW,240,3.0,4.0,85,0.00,,,0.01,,2013-03-07 05:22:00,
2013-03-07 00:32:00,32.0,28.0,30.21,West,281,0.0,3.0,86,0.00,,,0.01,,2013-03-07 05:32:00,
2013-03-07 00:42:00,32.0,28.0,30.21,West,281,0.0,3.0,86,0.00,,,0.01,,2013-03-07 05:42:00,
2013-03-07 00:53:00,32.0,28.0,30.21,WNW,293,3.0,7.0,86,0.00,,,0.01,,2013-03-07 05:53:00,
2013-03-07 01:02:00,33.0,29.0,30.21,West,262,2.0,4.0,84,0.00,,,0.01,,2013-03-07 06:02:00,
2013-03-07 01:11:00,33.0,29.0,30.21,West,262,2.0,4.0,84,0.00,,,0.01,,2013-03-07 06:11:00,
2013-03-07 01:21:00,33.0,28.0,30.21,West,281,5.0,10.0,83,0.00,,,0.01,,2013-03-07 06:21:00,
2013-03-07 01:32:00,33.0,29.0,30.22,West,281,5.0,8.0,84,0.00,,,0.01,,2013-03-07 06:32:00,
2013-03-07 01:42:00,33.0,29.0,30.22,West,281,5.0,8.0,84,0.00,,,0.01,,2013-03-07 06:42:00,
2013-03-07 01:52:00,33.0,29.0,30.22,West,276,4.0,7.0,84,0.00,,,0.01,,2013-03-07 06:52:00,
2013-03-07 02:01:00,33.0,29.0,30.22,WNW,285,4.0,7.0,85,0.00,,,0.01,,2013-03-07 07:01:00,
2013-03-07 02:11:00,33.0,29.0,30.22,WNW,285,4.0,7.0,85,0.00,,,0.01,,2013-03-07 07:11:00,
2013-03-07 02:22:00,33.0,29.0,30.22,West,264,3.0,6.0,86,0.00,,,0.01,,2013-03-07 07:22:00,
2013-03-07 02:32:00,33.0,29.0,30.23,West,281,2.0,6.0,86,0.00,,,0.01,,2013-03-07 07:32:00,
2013-03-07 02:43:00,33.0,29.0,30.23,West,281,2.0,6.0,86,0.00,,,0.01,,2013-03-07 07:43:00,
2013-03-07 02:53:00,33.0,30.0,30.22,West,273,2.0,4.0,87,0.00,,,0.01,,2013-03-07 07:53:00,
2013-03-07 03:03:00,32.0,29.0,30.22,West,276,1.0,3.0,87,0.00,,,0.01,,2013-03-07 08:03:00,
2013-03-07 03:12:00,32.0,29.0,30.22,West,276,1.0,3.0,87,0.00,,,0.01,,2013-03-07 08:12:00,
2013-03-07 03:23:00,33.0,30.0,30.22,West,274,1.0,3.0,88,0.00,,,0.01,,2013-03-07 08:23:00,
2013-03-07 03:33:00,33.0,30.0,30.22,WNW,284,2.0,4.0,88,0.00,,,0.01,,2013-03-07 08:33:00,
2013-03-07 03:44:00,33.0,30.0,30.22,WNW,284,2.0,4.0,88,0.00,,,0.01,,2013-03-07 08:44:00,
2013-03-07 03:54:00,33.0,30.0,30.22,West,271,2.0,6.0,88,0.00,,,0.01,,2013-03-07 08:54:00,
2013-03-07 04:03:00,33.0,30.0,30.22,West,280,2.0,5.0,88,0.00,,,0.01,,2013-03-07 09:03:00,
2013-03-07 04:13:00,33.0,30.0,30.22,West,280,2.0,5.0,88,0.00,,,0.01,,2013-03-07 09:13:00,
2013-03-07 04:23:00,32.0,29.0,30.23,West,270,1.0,4.0,89,0.00,,,0.01,,2013-03-07 09:23:00,
2013-03-07 04:33:00,33.0,30.0,30.24,WNW,287,1.0,4.0,89,0.00,,,0.01,,2013-03-07 09:33:00,
2013-03-07 04:43:00,33.0,30.0,30.24,WNW,287,1.0,4.0,89,0.00,,,0.01,,2013-03-07 09:43:00,
2013-03-07 04:53:00,33.0,30.0,30.24,WNW,285,1.0,3.0,89,0.00,,,0.01,,2013-03-07 09:53:00,
2013-03-07 05:03:00,33.0,30.0,30.24,West,275,1.0,2.0,89,0.00,,,0.01,,2013-03-07 10:03:00,
2013-03-07 05:13:00,33.0,30.0,30.24,West,275,1.0,2.0,89,0.00,,,0.01,,2013-03-07 10:13:00,
2013-03-07 05:23:00,32.0,29.0,30.25,WNW,291,1.0,3.0,90,0.00,,,0.01,,2013-03-07 10:23:00,
2013-03-07 05:33:00,32.0,29.0,30.25,WNW,287,1.0,3.0,90,0.00,,,0.01,,2013-03-07 10:33:00,
2013-03-07 05:43:00,32.0,29.0,30.25,WNW,287,1.0,3.0,90,0.00,,,0.01,,2013-03-07 10:43:00,
2013-03-07 05:52:00,33.0,30.0,30.26,WNW,288,2.0,4.0,90,0.00,,,0.01,,2013-03-07 10:52:00,
2013-03-07 06:03:00,33.0,30.0,30.26,West,274,1.0,5.0,89,0.00,,,0.01,,2013-03-07 11:03:00,
2013-03-07 06:12:00,33.0,30.0,30.26,West,274,1.0,5.0,89,0.00,,,0.01,,2013-03-07 11:12:00,
2013-03-07 06:23:00,33.0,30.0,30.27,West,262,2.0,4.0,89,0.00,,,0.01,,2013-03-07 11:23:00,
2013-03-07 06:33:00,33.0,30.0,30.27,WNW,288,2.0,5.0,90,0.00,,,0.01,,2013-03-07 11:33:00,
2013-03-07 06:43:00,33.0,30.0,30.27,WNW,288,2.0,5.0,90,0.00,,,0.01,,2013-03-07 11:43:00,
2013-03-07 06:53:00,33.0,30.0,30.27,WNW,288,2.0,5.0,89,0.00,,,0.01,,2013-03-07 11:53:00,
2013-03-07 07:03:00,33.0,30.0,30.27,WNW,288,2.0,5.0,89,0.00,,,0.01,,2013-03-07 12:03:00,
2013-03-07 07:12:00,33.0,30.0,30.27,WNW,288,2.0,5.0,89,0.00,,,0.01,,2013-03-07 12:12:00,
2013-03-07 07:23:00,33.0,30.0,30.27,West,270,2.0,4.0,89,0.00,,,0.01,,2013-03-07 12:23:00,
2013-03-07 07:33:00,33.0,30.0,30.28,West,278,2.0,5.0,90,0.00,,,0.01,,2013-03-07 12:33:00,
2013-03-07 07:43:00,33.0,30.0,30.28,West,278,2.0,5.0,90,0.00,,,0.01,,2013-03-07 12:43:00,
2013-03-07 07:52:00,33.0,30.0,30.28,West,275,1.0,4.0,90,0.00,,,0.01,,2013-03-07 12:52:00,
2013-03-07 08:03:00,32.0,29.0,30.29,West,266,2.0,4.0,90,0.00,,,0.01,,2013-03-07 13:03:00,
2013-03-07 08:13:00,32.0,29.0,30.29,West,266,2.0,4.0,90,0.00,,,0.01,,2013-03-07 13:13:00,
2013-03-07 08:23:00,32.0,29.0,30.29,West,271,2.0,3.0,90,0.00,,,0.01,,2013-03-07 13:23:00,
2013-03-07 08:33:00,33.0,30.0,30.29,WSW,257,2.0,4.0,90,0.00,,,0.01,,2013-03-07 13:33:00,
2013-03-07 08:42:00,33.0,30.0,30.29,WSW,257,2.0,4.0,90,0.00,,,0.01,,2013-03-07 13:42:00,
2013-03-07 08:53:00,33.0,30.0,30.30,West,278,2.0,4.0,90,0.00,,,0.01,,2013-03-07 13:53:00,
2013-03-07 09:02:00,33.0,30.0,30.31,West,281,2.0,5.0,90,0.00,,,0.01,,2013-03-07 14:02:00,
2013-03-07 09:12:00,33.0,30.0,30.31,West,281,2.0,5.0,90,0.00,,,0.01,,2013-03-07 14:12:00,
2013-03-07 09:23:00,34.0,31.0,30.32,WNW,283,2.0,5.0,89,0.00,,,0.01,,2013-03-07 14:23:00,
2013-03-07 09:33:00,34.0,31.0,30.32,WNW,291,1.0,4.0,88,0.00,,,0.01,,2013-03-07 14:33:00,
2013-03-07 09:43:00,34.0,31.0,30.32,WNW,291,1.0,4.0,88,0.00,,,0.01,,2013-03-07 14:43:00,
2013-03-07 09:53:00,34.0,31.0,30.32,WNW,290,4.0,8.0,87,0.00,,,0.01,,2013-03-07 14:53:00,
2013-03-07 10:03:00,35.0,32.0,30.32,WNW,297,3.0,9.0,87,0.00,,,0.01,,2013-03-07 15:03:00,
2013-03-07 10:12:00,35.0,32.0,30.32,WNW,297,3.0,9.0,87,0.00,,,0.01,,2013-03-07 15:12:00,
2013-03-07 10:23:00,35.0,31.0,30.32,NNW,345,3.0,6.0,86,0.00,,,0.01,,2013-03-07 15:23:00,
2013-03-07 10:33:00,35.0,31.0,30.32,NW,322,4.0,7.0,85,0.00,,,0.01,,2013-03-07 15:33:00,
2013-03-07 10:43:00,35.0,31.0,30.32,NW,322,4.0,7.0,85,0.00,,,0.01,,2013-03-07 15:43:00,
2013-03-07 10:52:00,35.0,31.0,30.32,NNW,329,6.0,10.0,85,0.00,,,0.01,,2013-03-07 15:52:00,
2013-03-07 11:02:00,36.0,32.0,30.32,NW,313,3.0,9.0,84,0.00,,,0.01,,2013-03-07 16:02:00,
2013-03-07 11:13:00,36.0,32.0,30.32,NW,313,3.0,9.0,84,0.00,,,0.01,,2013-03-07 16:13:00,
2013-03-07 11:24:00,37.0,32.0,30.32,NNW,332,3.0,8.0,82,0.00,,,0.01,,2013-03-07 16:24:00,
2013-03-07 11:33:00,37.0,32.0,30.33,NW,316,4.0,8.0,81,0.00,,,0.01,,2013-03-07 16:33:00,
2013-03-07 11:43:00,37.0,32.0,30.33,NW,316,4.0,8.0,81,0.00,,,0.01,,2013-03-07 16:43:00,
2013-03-07 11:52:00,38.0,33.0,30.33,WNW,290,3.0,9.0,81,0.00,,,0.01,,2013-03-07 16:52:00,
2013-03-07 12:03:00,37.0,31.0,30.33,NNW,347,5.0,11.0,80,0.00,,,0.01,,2013-03-07 17:03:00,
2013-03-07 12:12:00,37.0,31.0,30.33,NNW,347,5.0,11.0,80,0.00,,,0.01,,2013-03-07 17:12:00,
2013-03-07 12:23:00,38.0,32.0,30.33,NNW,329,3.0,11.0,79,0.00,,,0.01,,2013-03-07 17:23:00,
2013-03-07 12:33:00,38.0,32.0,30.33,WNW,293,4.0,8.0,78,0.00,,,0.00,,2013-03-07 17:33:00,
2013-03-07 12:43:00,38.0,32.0,30.33,WNW,293,4.0,8.0,78,0.00,,,0.00,,2013-03-07 17:43:00,
2013-03-07 13:04:00,39.0,32.0,30.32,WNW,290,3.0,7.0,76,0.00,,,0.00,,2013-03-07 18:04:00,
2013-03-07 13:13:00,39.0,32.0,30.32,WNW,290,3.0,7.0,76,0.00,,,0.00,,2013-03-07 18:13:00,
2013-03-07 13:22:00,39.0,32.0,30.33,West,267,3.0,9.0,76,0.00,,,0.00,,2013-03-07 18:22:00,
2013-03-07 13:32:00,38.0,31.0,30.32,NNE,27,6.0,10.0,75,0.00,,,0.00,,2013-03-07 18:32:00,
2013-03-07 13:42:00,38.0,31.0,30.32,NNE,27,6.0,10.0,75,0.00,,,0.00,,2013-03-07 18:42:00,
2013-03-07 13:52:00,38.0,31.0,30.32,NW,326,5.0,10.0,76,0.00,,,0.00,,2013-03-07 18:52:00,
2013-03-07 14:03:00,39.0,32.0,30.32,North,352,3.0,11.0,75,0.00,,,0.00,,2013-03-07 19:03:00,
2013-03-07 14:12:00,39.0,32.0,30.32,North,352,3.0,11.0,75,0.00,,,0.00,,2013-03-07 19:12:00,
2013-03-07 14:23:00,38.0,30.0,30.32,NNW,338,6.0,10.0,74,0.00,,,0.00,,2013-03-07 19:23:00,
2013-03-07 14:35:00,38.0,30.0,30.31,NNW,347,3.0,8.0,73,0.00,,,0.00,,2013-03-07 19:35:00,
2013-03-07 14:43:00,38.0,30.0,30.31,NNW,347,3.0,8.0,73,0.00,,,0.00,,2013-03-07 19:43:00,
2013-03-07 14:52:00,38.0,30.0,30.30,WNW,285,3.0,9.0,72,0.00,,,0.00,,2013-03-07 19:52:00,
2013-03-07 15:02:00,39.0,30.0,30.31,NW,312,4.0,9.0,69,0.00,,,0.00,,2013-03-07 20:02:00,
2013-03-07 15:14:00,39.0,30.0,30.31,NW,312,4.0,9.0,69,0.00,,,0.00,,2013-03-07 20:14:00,
2013-03-07 15:22:00,39.0,29.0,30.31,WNW,297,2.0,9.0,68,0.00,,,0.00,,2013-03-07 20:22:00,
2013-03-07 15:34:00,39.0,30.0,30.32,WNW,290,3.0,7.0,70,0.00,,,0.00,,2013-03-07 20:34:00,
2013-03-07 15:43:00,39.0,30.0,30.32,WNW,290,3.0,7.0,70,0.00,,,0.00,,2013-03-07 20:43:00,
2013-03-07 15:53:00,38.0,29.0,30.32,NNW,335,2.0,8.0,70,0.00,,,0.00,,2013-03-07 20:53:00,
2013-03-07 16:03:00,38.0,28.0,30.32,WNW,293,2.0,6.0,68,0.00,,,0.00,,2013-03-07 21:03:00,
2013-03-07 16:12:00,38.0,28.0,30.32,WNW,293,2.0,6.0,68,0.00,,,0.00,,2013-03-07 21:12:00,
2013-03-07 16:23:00,38.0,29.0,30.32,WNW,297,4.0,11.0,69,0.00,,,0.00,,2013-03-07 21:23:00,
2013-03-07 16:33:00,38.0,28.0,30.33,NW,311,2.0,12.0,66,0.00,,,0.00,,2013-03-07 21:33:00,
2013-03-07 16:43:00,38.0,28.0,30.33,NW,311,2.0,12.0,66,0.00,,,0.00,,2013-03-07 21:43:00,
2013-03-07 16:52:00,39.0,28.0,30.33,WNW,283,2.0,5.0,65,0.00,,,0.00,,2013-03-07 21:52:00,
2013-03-07 17:02:00,38.0,27.0,30.33,WNW,297,2.0,10.0,64,0.00,,,0.00,,2013-03-07 22:02:00,
2013-03-07 17:12:00,38.0,27.0,30.33,WNW,297,2.0,10.0,64,0.00,,,0.00,,2013-03-07 22:12:00,
2013-03-07 17:23:00,38.0,27.0,30.33,WNW,300,2.0,9.0,64,0.00,,,0.00,,2013-03-07 22:23:00,
2013-03-07 17:33:00,37.0,27.0,30.34,WNW,287,3.0,7.0,67,0.00,,,0.00,,2013-03-07 22:33:00,
2013-03-07 17:43:00,37.0,27.0,30.34,WNW,287,3.0,7.0,67,0.00,,,0.00,,2013-03-07 22:43:00,
2013-03-07 17:53:00,37.0,27.0,30.34,WNW,291,2.0,8.0,67,0.00,,,0.00,,2013-03-07 22:53:00,
2013-03-07 18:03:00,37.0,27.0,30.34,WNW,287,1.0,5.0,68,0.00,,,0.00,,2013-03-07 23:03:00,
2013-03-07 18:13:00,37.0,27.0,30.34,WNW,287,1.0,5.0,68,0.00,,,0.00,,2013-03-07 23:13:00,
2013-03-07 18:22:00,37.0,28.0,30.34,WNW,302,0.0,9.0,69,0.00,,,0.00,,2013-03-07 23:22:00,
2013-03-07 18:34:00,36.0,28.0,30.35,NW,305,2.0,6.0,71,0.00,,,0.00,,2013-03-07 23:34:00,
2013-03-07 18:43:00,36.0,28.0,30.35,NW,305,2.0,6.0,71,0.00,,,0.00,,2013-03-07 23:43:00,
2013-03-07 18:53:00,36.0,28.0,30.35,WNW,293,0.0,3.0,72,0.00,,,0.00,,2013-03-07 23:53:00,
2013-03-07 19:04:00,36.0,27.0,30.36,WNW,297,1.0,5.0,69,0.00,,,0.00,,2013-03-08 00:04:00,
2013-03-07 19:13:00,36.0,27.0,30.36,WNW,297,1.0,5.0,69,0.00,,,0.00,,2013-03-08 00:13:00,
2013-03-07 19:23:00,36.0,26.0,30.36,WNW,300,1.0,4.0,68,0.00,,,0.00,,2013-03-08 00:23:00,
2013-03-07 19:34:00,36.0,26.0,30.37,WNW,291,0.0,3.0,68,0.00,,,0.00,,2013-03-08 00:34:00,
2013-03-07 19:44:00,36.0,26.0,30.37,WNW,291,0.0,3.0,68,0.00,,,0.00,,2013-03-08 00:44:00,
2013-03-07 19:53:00,35.0,25.0,30.37,North,352,0.0,3.0,67,0.00,,,0.00,,2013-03-08 00:53:00,
2013-03-07 20:02:00,35.0,26.0,30.37,NW,312,0.0,2.0,68,0.00,,,0.00,,2013-03-08 01:02:00,
2013-03-07 20:12:00,35.0,26.0,30.37,NW,312,0.0,2.0,68,0.00,,,0.00,,2013-03-08 01:12:00,
2013-03-07 20:22:00,35.0,26.0,30.37,WNW,297,0.0,1.0,69,0.00,,,0.00,,2013-03-08 01:22:00,
2013-03-07 20:33:00,35.0,26.0,30.37,WNW,297,0.0,1.0,69,0.00,,,0.00,,2013-03-08 01:33:00,
2013-03-07 20:42:00,35.0,26.0,30.37,WNW,297,0.0,1.0,69,0.00,,,0.00,,2013-03-08 01:42:00,
2013-03-07 20:52:00,35.0,27.0,30.37,WNW,297,0.0,1.0,71,0.00,,,0.00,,2013-03-08 01:52:00,
2013-03-07 21:02:00,35.0,27.0,30.37,NW,307,0.0,1.0,71,0.00,,,0.00,,2013-03-08 02:02:00,
2013-03-07 21:12:00,34.0,26.0,30.37,NW,305,0.0,2.0,71,0.00,,,0.00,,2013-03-08 02:12:00,
2013-03-07 21:22:00,34.0,26.0,30.37,NW,305,0.0,2.0,71,0.00,,,0.00,,2013-03-08 02:22:00,
2013-03-07 21:32:00,34.0,27.0,30.38,NNE,14,0.0,2.0,74,0.00,,,0.00,,2013-03-08 02:32:00,
2013-03-07 21:42:00,34.0,27.0,30.38,NNE,14,0.0,2.0,74,0.00,,,0.00,,2013-03-08 02:42:00,
2013-03-07 21:52:00,34.0,27.0,30.38,North,9,0.0,1.0,74,0.00,,,0.00,,2013-03-08 02:52:00,
2013-03-07 22:02:00,34.0,26.0,30.37,North,7,1.0,2.0,72,0.00,,,0.00,,2013-03-08 03:02:00,
2013-03-07 22:12:00,34.0,26.0,30.37,North,7,1.0,2.0,72,0.00,,,0.00,,2013-03-08 03:12:00,
2013-03-07 22:22:00,34.0,27.0,30.37,NNE,15,1.0,2.0,74,0.00,,,0.00,,2013-03-08 03:22:00,
2013-03-07 22:33:00,34.0,26.0,30.37,North,359,0.0,3.0,73,0.00,,,0.00,,2013-03-08 03:33:00,
2013-03-07 22:43:00,34.0,26.0,30.37,North,359,0.0,3.0,73,0.00,,,0.00,,2013-03-08 03:43:00,
2013-03-07 22:52:00,34.0,26.0,30.37,North,359,0.0,3.0,73,0.00,,,0.00,,2013-03-08 03:52:00,
2013-03-07 23:02:00,33.0,26.0,30.37,North,360,0.0,1.0,75,0.00,,,0.00,,2013-03-08 04:02:00,
2013-03-07 23:12:00,33.0,26.0,30.37,North,360,0.0,1.0,75,0.00,,,0.00,,2013-03-08 04:12:00,
2013-03-07 23:22:00,33.0,26.0,30.37,North,354,1.0,1.0,76,0.00,,,0.00,,2013-03-08 04:22:00,
2013-03-07 23:32:00,33.0,25.0,30.37,North,354,0.0,1.0,73,0.00,,,0.00,,2013-03-08 04:32:00,
2013-03-07 23:42:00,33.0,25.0,30.37,North,354,0.0,1.0,73,0.00,,,0.00,,2013-03-08 04:42:00,
2013-03-07 23:52:00,33.0,26.0,30.38,North,354,0.0,1.0,75,0.00,,,0.00,,2013-03-08 04:52:00,